Etusivu
METAR-TAF:

METAR-TAF

Lentoasemat :

Carlsbad, New Mexico, Yhdysvallat

Leveyspiiri: 32-20-15N, Pituuspiiri: 104-15-48W, korkeus merenpinnasta: 1004 m

Tämänhetkinen sää

Tämä raportti tehtiin 34 minuuttia sitten, kello 02.53 UTC
Tuuli 6 kn lännestä
Lämpötila 12°C
Kosteus 44%
Ilmanpaine 1014 hPa
Näkyvyys: 16.1 km
selkeää

METAR: KCNM 190253Z AUTO 28006KT 10SM CLR 12/00 A2995 RMK AO2 SLP121 T01170000 53010

Aika: 20:27 (03:27 UTC)

Sääennuste

Tämä raportti tehtiin 4 tuntia ja 5 minuuttia sitten, kello 23.22 UTC
Ennuste voimassa 19. päivästä klo 00 UTC - 19. päivään klo 24 UTC
Tuuli 8 kn pohjoisesta
Näkyvyys: 10 km
selkeää
From 19. päivästä klo 0300 UTC
Tuuli 5 kn eri suunnista
Näkyvyys: 10 km
Muutamia pilviä 25000 ft:n korkeudessa
From 19. päivästä klo 1900 UTC
Tuuli 11 kn etelästä
Näkyvyys: 10 km
Hajanaisia pilviä 25000 ft:n korkeudessa

TAF: KCNM 182322Z 1900/1924 35008KT P6SM SKC FM190300 VRB05KT P6SM FEW250 FM191900 18011KT P6SM SCT250

Säähavainnot ja -ennusteet yli 4000 lentoasemalta (METAR- ja TAF-raportit).

Käytössä olevat sääasemat on merkitty karttaan keltaisilla ja punaisilla pisteillä.

Aseta hiiri pisteen päälle nähdäksesi sääaseman nimen.

Klikkaa sitten nähdäksesi säähavainnot ja -ennusteet.

Kartan vaihtaminen: klikkaa mustalla rastilla varustettuja vihreitä pisteitä, niin voit zoomata sisään; viivalla varustettua vihreää pistettä, niin voit zoomata ulos tai vihreitä nuolia, niin pääset viereisille kartoille.


METAR-TAF: